sensor_id;sensor_type;location;lat;lon;timestamp;P1;durP1;ratioP1;P2;durP2;ratioP2
27199;SDS011;14714;48.106;11.546;2023-04-15T00:01:08;3.67;;;2.40;;
27199;SDS011;14714;48.106;11.546;2023-04-15T00:03:35;5.75;;;2.60;;
27199;SDS011;14714;48.106;11.546;2023-04-15T00:06:02;6.75;;;2.60;;
27199;SDS011;14714;48.106;11.546;2023-04-15T00:08:29;6.55;;;2.95;;
27199;SDS011;14714;48.106;11.546;2023-04-15T00:10:56;5.63;;;2.33;;
27199;SDS011;14714;48.106;11.546;2023-04-15T00:13:28;6.55;;;2.97;;
27199;SDS011;14714;48.106;11.546;2023-04-15T00:15:54;9.85;;;3.03;;
27199;SDS011;14714;48.106;11.546;2023-04-15T00:18:21;5.72;;;3.17;;
27199;SDS011;14714;48.106;11.546;2023-04-15T00:20:49;8.15;;;3.45;;
27199;SDS011;14714;48.106;11.546;2023-04-15T00:23:15;5.15;;;2.80;;
27199;SDS011;14714;48.106;11.546;2023-04-15T00:25:43;5.43;;;2.83;;
27199;SDS011;14714;48.106;11.546;2023-04-15T00:28:10;8.23;;;3.25;;
27199;SDS011;14714;48.106;11.546;2023-04-15T00:30:36;5.22;;;3.10;;
27199;SDS011;14714;48.106;11.546;2023-04-15T00:33:04;7.90;;;3.22;;
27199;SDS011;14714;48.106;11.546;2023-04-15T00:35:30;6.82;;;3.10;;
27199;SDS011;14714;48.106;11.546;2023-04-15T00:38:02;6.35;;;3.00;;
27199;SDS011;14714;48.106;11.546;2023-04-15T00:40:29;9.93;;;3.45;;
27199;SDS011;14714;48.106;11.546;2023-04-15T00:42:56;4.53;;;2.67;;
27199;SDS011;14714;48.106;11.546;2023-04-15T00:45:23;5.90;;;3.08;;
27199;SDS011;14714;48.106;11.546;2023-04-15T00:47:51;5.88;;;3.20;;
27199;SDS011;14714;48.106;11.546;2023-04-15T00:50:18;3.97;;;3.10;;
27199;SDS011;14714;48.106;11.546;2023-04-15T00:52:45;5.82;;;3.28;;
27199;SDS011;14714;48.106;11.546;2023-04-15T00:55:12;7.20;;;3.50;;
27199;SDS011;14714;48.106;11.546;2023-04-15T00:57:39;7.65;;;3.60;;
27199;SDS011;14714;48.106;11.546;2023-04-15T01:00:06;8.32;;;3.63;;
27199;SDS011;14714;48.106;11.546;2023-04-15T01:02:34;7.13;;;3.53;;
27199;SDS011;14714;48.106;11.546;2023-04-15T01:05:02;4.78;;;3.10;;
27199;SDS011;14714;48.106;11.546;2023-04-15T01:07:30;7.30;;;3.25;;
27199;SDS011;14714;48.106;11.546;2023-04-15T01:09:57;7.18;;;3.28;;
27199;SDS011;14714;48.106;11.546;2023-04-15T01:12:25;5.35;;;3.00;;
27199;SDS011;14714;48.106;11.546;2023-04-15T01:14:52;6.28;;;3.60;;
27199;SDS011;14714;48.106;11.546;2023-04-15T01:17:20;6.80;;;3.28;;
27199;SDS011;14714;48.106;11.546;2023-04-15T01:19:47;5.57;;;3.33;;
27199;SDS011;14714;48.106;11.546;2023-04-15T01:22:14;7.60;;;3.20;;
27199;SDS011;14714;48.106;11.546;2023-04-15T01:24:42;6.80;;;3.45;;
27199;SDS011;14714;48.106;11.546;2023-04-15T01:27:20;4.85;;;3.20;;
27199;SDS011;14714;48.106;11.546;2023-04-15T01:29:47;6.05;;;3.40;;
27199;SDS011;14714;48.106;11.546;2023-04-15T01:32:14;6.60;;;3.03;;
27199;SDS011;14714;48.106;11.546;2023-04-15T01:34:41;6.72;;;3.80;;
27199;SDS011;14714;48.106;11.546;2023-04-15T01:37:08;6.72;;;3.42;;
27199;SDS011;14714;48.106;11.546;2023-04-15T01:39:35;5.88;;;3.38;;
27199;SDS011;14714;48.106;11.546;2023-04-15T01:42:01;7.25;;;3.38;;
27199;SDS011;14714;48.106;11.546;2023-04-15T01:44:29;6.57;;;3.45;;
27199;SDS011;14714;48.106;11.546;2023-04-15T01:46:56;6.63;;;3.42;;
27199;SDS011;14714;48.106;11.546;2023-04-15T01:49:22;7.40;;;3.25;;
27199;SDS011;14714;48.106;11.546;2023-04-15T01:51:49;7.30;;;3.67;;
27199;SDS011;14714;48.106;11.546;2023-04-15T01:54:16;8.13;;;3.80;;
27199;SDS011;14714;48.106;11.546;2023-04-15T01:56:43;5.80;;;3.50;;
27199;SDS011;14714;48.106;11.546;2023-04-15T01:59:09;5.97;;;3.60;;
27199;SDS011;14714;48.106;11.546;2023-04-15T02:01:36;8.70;;;3.88;;
27199;SDS011;14714;48.106;11.546;2023-04-15T02:04:04;6.78;;;3.40;;
27199;SDS011;14714;48.106;11.546;2023-04-15T02:06:31;5.50;;;3.13;;
27199;SDS011;14714;48.106;11.546;2023-04-15T02:08:58;6.22;;;3.45;;
27199;SDS011;14714;48.106;11.546;2023-04-15T02:11:25;8.00;;;3.35;;
27199;SDS011;14714;48.106;11.546;2023-04-15T02:13:52;6.32;;;3.65;;
27199;SDS011;14714;48.106;11.546;2023-04-15T02:16:19;7.45;;;4.03;;
27199;SDS011;14714;48.106;11.546;2023-04-15T02:18:46;5.07;;;3.10;;
27199;SDS011;14714;48.106;11.546;2023-04-15T02:21:13;6.45;;;3.50;;
27199;SDS011;14714;48.106;11.546;2023-04-15T02:23:40;6.43;;;3.50;;
27199;SDS011;14714;48.106;11.546;2023-04-15T02:26:07;8.90;;;3.22;;
27199;SDS011;14714;48.106;11.546;2023-04-15T02:28:33;6.35;;;3.50;;
27199;SDS011;14714;48.106;11.546;2023-04-15T02:31:04;7.10;;;3.40;;
27199;SDS011;14714;48.106;11.546;2023-04-15T02:33:31;5.20;;;3.30;;
27199;SDS011;14714;48.106;11.546;2023-04-15T02:35:58;8.48;;;3.65;;
27199;SDS011;14714;48.106;11.546;2023-04-15T02:38:26;6.20;;;3.42;;
27199;SDS011;14714;48.106;11.546;2023-04-15T02:40:52;5.07;;;3.25;;
27199;SDS011;14714;48.106;11.546;2023-04-15T02:43:19;9.07;;;3.30;;
27199;SDS011;14714;48.106;11.546;2023-04-15T02:45:46;6.75;;;3.20;;
27199;SDS011;14714;48.106;11.546;2023-04-15T02:48:13;8.73;;;3.58;;
27199;SDS011;14714;48.106;11.546;2023-04-15T02:50:43;7.25;;;3.15;;
27199;SDS011;14714;48.106;11.546;2023-04-15T02:53:11;7.50;;;3.28;;
27199;SDS011;14714;48.106;11.546;2023-04-15T02:55:38;7.00;;;3.47;;
27199;SDS011;14714;48.106;11.546;2023-04-15T02:58:05;6.68;;;3.05;;
27199;SDS011;14714;48.106;11.546;2023-04-15T03:00:32;6.47;;;3.00;;
27199;SDS011;14714;48.106;11.546;2023-04-15T03:03:01;7.57;;;3.47;;
27199;SDS011;14714;48.106;11.546;2023-04-15T03:07:56;7.05;;;3.10;;
27199;SDS011;14714;48.106;11.546;2023-04-15T03:10:23;6.20;;;2.97;;
27199;SDS011;14714;48.106;11.546;2023-04-15T03:12:50;5.53;;;2.80;;
27199;SDS011;14714;48.106;11.546;2023-04-15T03:15:17;4.10;;;2.85;;
27199;SDS011;14714;48.106;11.546;2023-04-15T03:17:44;4.43;;;2.90;;
27199;SDS011;14714;48.106;11.546;2023-04-15T03:20:11;9.05;;;3.40;;
27199;SDS011;14714;48.106;11.546;2023-04-15T03:22:38;5.35;;;2.75;;
27199;SDS011;14714;48.106;11.546;2023-04-15T03:25:05;6.20;;;3.20;;
27199;SDS011;14714;48.106;11.546;2023-04-15T03:27:32;7.28;;;3.10;;
27199;SDS011;14714;48.106;11.546;2023-04-15T03:29:58;4.75;;;2.63;;
27199;SDS011;14714;48.106;11.546;2023-04-15T03:32:25;5.43;;;2.67;;
27199;SDS011;14714;48.106;11.546;2023-04-15T03:34:52;7.82;;;3.10;;
27199;SDS011;14714;48.106;11.546;2023-04-15T03:37:19;4.00;;;2.88;;
27199;SDS011;14714;48.106;11.546;2023-04-15T03:39:46;5.72;;;2.90;;
27199;SDS011;14714;48.106;11.546;2023-04-15T03:42:12;4.35;;;2.80;;
27199;SDS011;14714;48.106;11.546;2023-04-15T03:44:39;6.03;;;2.80;;
27199;SDS011;14714;48.106;11.546;2023-04-15T03:47:06;4.95;;;2.70;;
27199;SDS011;14714;48.106;11.546;2023-04-15T03:49:33;7.15;;;2.58;;
27199;SDS011;14714;48.106;11.546;2023-04-15T03:52:01;8.00;;;3.17;;
27199;SDS011;14714;48.106;11.546;2023-04-15T03:54:27;6.15;;;2.95;;
27199;SDS011;14714;48.106;11.546;2023-04-15T03:56:54;9.40;;;3.13;;
27199;SDS011;14714;48.106;11.546;2023-04-15T03:59:21;6.65;;;2.83;;
27199;SDS011;14714;48.106;11.546;2023-04-15T04:01:48;6.88;;;2.72;;
27199;SDS011;14714;48.106;11.546;2023-04-15T04:04:16;5.80;;;2.58;;
27199;SDS011;14714;48.106;11.546;2023-04-15T04:06:43;4.80;;;2.63;;
27199;SDS011;14714;48.106;11.546;2023-04-15T04:09:10;4.63;;;2.60;;
27199;SDS011;14714;48.106;11.546;2023-04-15T04:11:36;5.10;;;2.70;;
27199;SDS011;14714;48.106;11.546;2023-04-15T04:14:03;5.55;;;2.75;;
27199;SDS011;14714;48.106;11.546;2023-04-15T04:16:30;5.55;;;2.42;;
27199;SDS011;14714;48.106;11.546;2023-04-15T04:18:57;5.65;;;2.50;;
27199;SDS011;14714;48.106;11.546;2023-04-15T04:21:24;5.90;;;2.53;;
27199;SDS011;14714;48.106;11.546;2023-04-15T04:23:51;6.32;;;2.50;;
27199;SDS011;14714;48.106;11.546;2023-04-15T04:26:18;5.45;;;2.63;;
27199;SDS011;14714;48.106;11.546;2023-04-15T04:28:45;5.53;;;2.33;;
27199;SDS011;14714;48.106;11.546;2023-04-15T04:31:12;5.43;;;2.95;;
27199;SDS011;14714;48.106;11.546;2023-04-15T04:33:39;4.28;;;2.45;;
27199;SDS011;14714;48.106;11.546;2023-04-15T04:36:06;5.85;;;2.65;;
27199;SDS011;14714;48.106;11.546;2023-04-15T04:38:33;6.90;;;2.33;;
27199;SDS011;14714;48.106;11.546;2023-04-15T04:40:59;6.32;;;2.80;;
27199;SDS011;14714;48.106;11.546;2023-04-15T04:43:26;6.50;;;2.72;;
27199;SDS011;14714;48.106;11.546;2023-04-15T04:45:53;4.40;;;2.45;;
27199;SDS011;14714;48.106;11.546;2023-04-15T04:48:20;5.65;;;2.80;;
27199;SDS011;14714;48.106;11.546;2023-04-15T04:50:46;6.22;;;2.53;;
27199;SDS011;14714;48.106;11.546;2023-04-15T04:53:13;8.32;;;2.80;;
27199;SDS011;14714;48.106;11.546;2023-04-15T04:55:41;5.32;;;2.80;;
27199;SDS011;14714;48.106;11.546;2023-04-15T04:58:07;8.90;;;2.90;;
27199;SDS011;14714;48.106;11.546;2023-04-15T05:00:34;5.90;;;2.40;;
27199;SDS011;14714;48.106;11.546;2023-04-15T05:03:03;6.53;;;2.75;;
27199;SDS011;14714;48.106;11.546;2023-04-15T05:05:30;5.45;;;2.20;;
27199;SDS011;14714;48.106;11.546;2023-04-15T05:07:57;7.10;;;2.88;;
27199;SDS011;14714;48.106;11.546;2023-04-15T05:10:24;7.32;;;2.90;;
27199;SDS011;14714;48.106;11.546;2023-04-15T05:12:50;4.65;;;2.55;;
27199;SDS011;14714;48.106;11.546;2023-04-15T05:15:17;4.55;;;2.53;;
27199;SDS011;14714;48.106;11.546;2023-04-15T05:17:44;4.97;;;2.75;;
27199;SDS011;14714;48.106;11.546;2023-04-15T05:20:12;4.30;;;2.35;;
27199;SDS011;14714;48.106;11.546;2023-04-15T05:22:39;6.50;;;2.40;;
27199;SDS011;14714;48.106;11.546;2023-04-15T05:25:06;4.88;;;2.67;;
27199;SDS011;14714;48.106;11.546;2023-04-15T05:27:33;4.07;;;2.20;;
27199;SDS011;14714;48.106;11.546;2023-04-15T05:30:00;4.18;;;2.10;;
27199;SDS011;14714;48.106;11.546;2023-04-15T05:32:27;7.80;;;2.47;;
27199;SDS011;14714;48.106;11.546;2023-04-15T05:34:54;5.07;;;2.03;;
27199;SDS011;14714;48.106;11.546;2023-04-15T05:37:21;4.85;;;2.40;;
27199;SDS011;14714;48.106;11.546;2023-04-15T05:39:48;3.95;;;2.00;;
27199;SDS011;14714;48.106;11.546;2023-04-15T05:42:14;4.38;;;1.75;;
27199;SDS011;14714;48.106;11.546;2023-04-15T05:44:41;3.83;;;1.83;;
27199;SDS011;14714;48.106;11.546;2023-04-15T05:47:08;6.60;;;2.10;;
27199;SDS011;14714;48.106;11.546;2023-04-15T05:49:36;3.08;;;1.98;;
27199;SDS011;14714;48.106;11.546;2023-04-15T05:52:02;5.85;;;2.30;;
27199;SDS011;14714;48.106;11.546;2023-04-15T05:54:29;6.03;;;2.13;;
27199;SDS011;14714;48.106;11.546;2023-04-15T05:56:56;4.82;;;1.90;;
27199;SDS011;14714;48.106;11.546;2023-04-15T05:59:24;3.08;;;1.80;;
27199;SDS011;14714;48.106;11.546;2023-04-15T06:01:51;4.00;;;2.08;;
27199;SDS011;14714;48.106;11.546;2023-04-15T06:04:18;7.18;;;1.95;;
27199;SDS011;14714;48.106;11.546;2023-04-15T06:06:45;4.95;;;1.95;;
27199;SDS011;14714;48.106;11.546;2023-04-15T06:09:12;4.85;;;2.05;;
27199;SDS011;14714;48.106;11.546;2023-04-15T06:11:39;4.57;;;2.05;;
27199;SDS011;14714;48.106;11.546;2023-04-15T06:14:06;5.22;;;1.90;;
27199;SDS011;14714;48.106;11.546;2023-04-15T06:16:33;4.97;;;1.80;;
27199;SDS011;14714;48.106;11.546;2023-04-15T06:19:02;3.38;;;1.90;;
27199;SDS011;14714;48.106;11.546;2023-04-15T06:21:29;4.53;;;2.00;;
27199;SDS011;14714;48.106;11.546;2023-04-15T06:23:57;6.05;;;2.70;;
27199;SDS011;14714;48.106;11.546;2023-04-15T06:26:25;3.17;;;1.80;;
27199;SDS011;14714;48.106;11.546;2023-04-15T06:28:52;5.38;;;2.15;;
27199;SDS011;14714;48.106;11.546;2023-04-15T06:31:19;8.43;;;2.50;;
27199;SDS011;14714;48.106;11.546;2023-04-15T06:33:45;6.80;;;2.40;;
27199;SDS011;14714;48.106;11.546;2023-04-15T06:36:12;4.88;;;1.85;;
27199;SDS011;14714;48.106;11.546;2023-04-15T06:38:39;3.53;;;1.63;;
27199;SDS011;14714;48.106;11.546;2023-04-15T06:41:06;3.70;;;1.90;;
27199;SDS011;14714;48.106;11.546;2023-04-15T06:43:33;2.78;;;1.80;;
27199;SDS011;14714;48.106;11.546;2023-04-15T06:46:00;7.32;;;2.58;;
27199;SDS011;14714;48.106;11.546;2023-04-15T06:48:27;4.22;;;1.83;;
27199;SDS011;14714;48.106;11.546;2023-04-15T06:50:54;5.38;;;1.90;;
27199;SDS011;14714;48.106;11.546;2023-04-15T06:53:21;5.75;;;1.90;;
27199;SDS011;14714;48.106;11.546;2023-04-15T06:55:48;6.25;;;1.80;;
27199;SDS011;14714;48.106;11.546;2023-04-15T06:58:14;5.07;;;2.08;;
27199;SDS011;14714;48.106;11.546;2023-04-15T07:00:42;5.20;;;1.90;;
27199;SDS011;14714;48.106;11.546;2023-04-15T07:03:10;6.32;;;2.05;;
27199;SDS011;14714;48.106;11.546;2023-04-15T07:05:38;5.25;;;1.90;;
27199;SDS011;14714;48.106;11.546;2023-04-15T07:08:04;3.78;;;1.80;;
27199;SDS011;14714;48.106;11.546;2023-04-15T07:10:35;5.43;;;1.80;;
27199;SDS011;14714;48.106;11.546;2023-04-15T07:15:29;4.25;;;1.60;;
27199;SDS011;14714;48.106;11.546;2023-04-15T07:17:56;4.72;;;1.80;;
27199;SDS011;14714;48.106;11.546;2023-04-15T07:20:22;4.53;;;1.85;;
27199;SDS011;14714;48.106;11.546;2023-04-15T07:22:49;5.50;;;1.60;;
27199;SDS011;14714;48.106;11.546;2023-04-15T07:25:16;4.68;;;1.70;;
27199;SDS011;14714;48.106;11.546;2023-04-15T07:27:44;4.63;;;1.60;;
27199;SDS011;14714;48.106;11.546;2023-04-15T07:30:11;4.40;;;1.70;;
27199;SDS011;14714;48.106;11.546;2023-04-15T07:32:38;3.42;;;1.67;;
27199;SDS011;14714;48.106;11.546;2023-04-15T07:35:05;5.70;;;1.80;;
27199;SDS011;14714;48.106;11.546;2023-04-15T07:37:32;4.90;;;1.60;;
27199;SDS011;14714;48.106;11.546;2023-04-15T07:39:59;2.95;;;1.60;;
27199;SDS011;14714;48.106;11.546;2023-04-15T07:42:27;4.22;;;1.63;;
27199;SDS011;14714;48.106;11.546;2023-04-15T07:44:54;2.90;;;1.70;;
27199;SDS011;14714;48.106;11.546;2023-04-15T07:47:21;3.55;;;1.50;;
27199;SDS011;14714;48.106;11.546;2023-04-15T07:49:48;4.72;;;1.70;;
27199;SDS011;14714;48.106;11.546;2023-04-15T07:52:16;4.15;;;1.90;;
27199;SDS011;14714;48.106;11.546;2023-04-15T07:54:44;2.80;;;1.60;;
27199;SDS011;14714;48.106;11.546;2023-04-15T07:57:10;3.95;;;1.60;;
27199;SDS011;14714;48.106;11.546;2023-04-15T07:59:37;3.63;;;1.70;;
27199;SDS011;14714;48.106;11.546;2023-04-15T08:02:04;3.92;;;1.70;;
27199;SDS011;14714;48.106;11.546;2023-04-15T08:04:31;3.72;;;1.60;;
27199;SDS011;14714;48.106;11.546;2023-04-15T08:06:59;5.97;;;1.83;;
27199;SDS011;14714;48.106;11.546;2023-04-15T08:09:26;4.10;;;1.60;;
27199;SDS011;14714;48.106;11.546;2023-04-15T08:11:52;3.38;;;1.38;;
27199;SDS011;14714;48.106;11.546;2023-04-15T08:14:19;3.08;;;1.80;;
27199;SDS011;14714;48.106;11.546;2023-04-15T08:16:46;3.95;;;2.00;;
27199;SDS011;14714;48.106;11.546;2023-04-15T08:19:13;2.95;;;1.67;;
27199;SDS011;14714;48.106;11.546;2023-04-15T08:21:40;4.00;;;1.80;;
27199;SDS011;14714;48.106;11.546;2023-04-15T08:24:07;3.00;;;1.52;;
27199;SDS011;14714;48.106;11.546;2023-04-15T08:26:33;4.45;;;1.60;;
27199;SDS011;14714;48.106;11.546;2023-04-15T08:29:00;4.82;;;1.70;;
27199;SDS011;14714;48.106;11.546;2023-04-15T08:31:28;6.35;;;2.00;;
27199;SDS011;14714;48.106;11.546;2023-04-15T08:33:55;6.28;;;1.90;;
27199;SDS011;14714;48.106;11.546;2023-04-15T08:36:23;4.10;;;1.83;;
27199;SDS011;14714;48.106;11.546;2023-04-15T08:38:49;4.13;;;1.98;;
27199;SDS011;14714;48.106;11.546;2023-04-15T08:41:20;6.65;;;2.38;;
27199;SDS011;14714;48.106;11.546;2023-04-15T08:43:57;4.70;;;2.10;;
27199;SDS011;14714;48.106;11.546;2023-04-15T08:46:29;4.07;;;2.00;;
27199;SDS011;14714;48.106;11.546;2023-04-15T08:48:57;5.85;;;2.42;;
27199;SDS011;14714;48.106;11.546;2023-04-15T08:51:24;3.63;;;2.10;;
27199;SDS011;14714;48.106;11.546;2023-04-15T08:53:52;3.63;;;1.85;;
27199;SDS011;14714;48.106;11.546;2023-04-15T08:56:19;3.50;;;1.90;;
27199;SDS011;14714;48.106;11.546;2023-04-15T08:58:50;5.35;;;2.00;;
27199;SDS011;14714;48.106;11.546;2023-04-15T09:01:18;7.13;;;2.20;;
27199;SDS011;14714;48.106;11.546;2023-04-15T09:03:47;4.53;;;2.25;;
27199;SDS011;14714;48.106;11.546;2023-04-15T09:06:15;6.68;;;2.15;;
27199;SDS011;14714;48.106;11.546;2023-04-15T09:08:43;4.78;;;2.47;;
27199;SDS011;14714;48.106;11.546;2023-04-15T09:11:10;6.38;;;2.70;;
27199;SDS011;14714;48.106;11.546;2023-04-15T09:13:37;4.47;;;2.17;;
27199;SDS011;14714;48.106;11.546;2023-04-15T09:16:04;4.60;;;2.17;;
27199;SDS011;14714;48.106;11.546;2023-04-15T09:18:33;4.72;;;2.00;;
27199;SDS011;14714;48.106;11.546;2023-04-15T09:21:04;6.70;;;2.60;;
27199;SDS011;14714;48.106;11.546;2023-04-15T09:23:34;6.15;;;2.63;;
27199;SDS011;14714;48.106;11.546;2023-04-15T09:26:01;4.07;;;2.53;;
27199;SDS011;14714;48.106;11.546;2023-04-15T09:28:28;4.38;;;2.53;;
27199;SDS011;14714;48.106;11.546;2023-04-15T09:30:57;7.25;;;2.72;;
27199;SDS011;14714;48.106;11.546;2023-04-15T09:33:25;5.70;;;2.72;;
27199;SDS011;14714;48.106;11.546;2023-04-15T09:35:59;4.85;;;2.53;;
27199;SDS011;14714;48.106;11.546;2023-04-15T09:38:31;5.80;;;2.50;;
27199;SDS011;14714;48.106;11.546;2023-04-15T09:40:58;4.88;;;2.70;;
27199;SDS011;14714;48.106;11.546;2023-04-15T09:43:36;3.70;;;2.30;;
27199;SDS011;14714;48.106;11.546;2023-04-15T09:46:06;4.47;;;2.35;;
27199;SDS011;14714;48.106;11.546;2023-04-15T09:48:33;4.35;;;2.92;;
27199;SDS011;14714;48.106;11.546;2023-04-15T09:51:00;6.18;;;2.65;;
27199;SDS011;14714;48.106;11.546;2023-04-15T09:53:27;3.35;;;2.70;;
27199;SDS011;14714;48.106;11.546;2023-04-15T09:55:57;7.83;;;3.20;;
27199;SDS011;14714;48.106;11.546;2023-04-15T09:58:29;6.05;;;3.15;;
27199;SDS011;14714;48.106;11.546;2023-04-15T10:00:57;4.35;;;3.00;;
27199;SDS011;14714;48.106;11.546;2023-04-15T10:03:27;5.10;;;3.03;;
27199;SDS011;14714;48.106;11.546;2023-04-15T10:05:56;4.70;;;2.88;;
27199;SDS011;14714;48.106;11.546;2023-04-15T10:08:25;3.88;;;2.55;;
27199;SDS011;14714;48.106;11.546;2023-04-15T10:10:54;4.97;;;2.95;;
27199;SDS011;14714;48.106;11.546;2023-04-15T10:13:25;7.53;;;2.80;;
27199;SDS011;14714;48.106;11.546;2023-04-15T10:18:33;7.20;;;3.20;;
27199;SDS011;14714;48.106;11.546;2023-04-15T10:21:03;6.30;;;3.55;;
27199;SDS011;14714;48.106;11.546;2023-04-15T10:23:31;5.78;;;3.38;;
27199;SDS011;14714;48.106;11.546;2023-04-15T10:25:58;6.18;;;3.10;;
27199;SDS011;14714;48.106;11.546;2023-04-15T10:28:26;6.95;;;3.45;;
27199;SDS011;14714;48.106;11.546;2023-04-15T10:30:53;4.88;;;3.58;;
27199;SDS011;14714;48.106;11.546;2023-04-15T10:33:22;8.43;;;3.70;;
27199;SDS011;14714;48.106;11.546;2023-04-15T10:35:50;4.65;;;3.30;;
27199;SDS011;14714;48.106;11.546;2023-04-15T10:38:30;6.10;;;3.75;;
27199;SDS011;14714;48.106;11.546;2023-04-15T10:43:44;6.10;;;3.60;;
27199;SDS011;14714;48.106;11.546;2023-04-15T10:46:15;6.43;;;3.95;;
27199;SDS011;14714;48.106;11.546;2023-04-15T10:48:51;6.20;;;4.00;;
27199;SDS011;14714;48.106;11.546;2023-04-15T10:51:27;6.20;;;3.30;;
27199;SDS011;14714;48.106;11.546;2023-04-15T10:53:56;9.63;;;4.10;;
27199;SDS011;14714;48.106;11.546;2023-04-15T10:56:24;6.40;;;3.70;;
27199;SDS011;14714;48.106;11.546;2023-04-15T10:58:54;4.38;;;3.25;;
27199;SDS011;14714;48.106;11.546;2023-04-15T11:01:20;6.20;;;3.53;;
27199;SDS011;14714;48.106;11.546;2023-04-15T11:03:50;8.67;;;3.97;;
27199;SDS011;14714;48.106;11.546;2023-04-15T11:06:17;7.07;;;3.70;;
27199;SDS011;14714;48.106;11.546;2023-04-15T11:11:20;6.13;;;3.65;;
27199;SDS011;14714;48.106;11.546;2023-04-15T11:13:47;5.03;;;3.25;;
27199;SDS011;14714;48.106;11.546;2023-04-15T11:16:16;5.90;;;3.47;;
27199;SDS011;14714;48.106;11.546;2023-04-15T11:18:52;6.72;;;3.65;;
27199;SDS011;14714;48.106;11.546;2023-04-15T11:21:23;7.57;;;3.60;;
27199;SDS011;14714;48.106;11.546;2023-04-15T11:23:51;7.10;;;3.60;;
27199;SDS011;14714;48.106;11.546;2023-04-15T11:26:18;8.50;;;3.95;;
27199;SDS011;14714;48.106;11.546;2023-04-15T11:28:50;7.25;;;4.10;;
27199;SDS011;14714;48.106;11.546;2023-04-15T11:31:17;7.18;;;3.72;;
27199;SDS011;14714;48.106;11.546;2023-04-15T11:36:18;8.43;;;3.95;;
27199;SDS011;14714;48.106;11.546;2023-04-15T11:38:45;6.70;;;3.92;;
27199;SDS011;14714;48.106;11.546;2023-04-15T11:41:13;6.72;;;3.70;;
27199;SDS011;14714;48.106;11.546;2023-04-15T11:43:39;7.90;;;4.07;;
27199;SDS011;14714;48.106;11.546;2023-04-15T11:46:06;7.93;;;4.40;;
27199;SDS011;14714;48.106;11.546;2023-04-15T11:48:34;6.45;;;4.00;;
27199;SDS011;14714;48.106;11.546;2023-04-15T11:51:02;4.80;;;3.63;;
27199;SDS011;14714;48.106;11.546;2023-04-15T11:56:04;6.72;;;4.07;;
27199;SDS011;14714;48.106;11.546;2023-04-15T11:58:33;5.43;;;3.40;;
27199;SDS011;14714;48.106;11.546;2023-04-15T12:01:02;6.75;;;3.90;;
27199;SDS011;14714;48.106;11.546;2023-04-15T12:11:38;7.47;;;4.10;;
27199;SDS011;14714;48.106;11.546;2023-04-15T12:19:37;7.90;;;3.90;;
27199;SDS011;14714;48.106;11.546;2023-04-15T12:22:14;5.82;;;4.00;;
27199;SDS011;14714;48.106;11.546;2023-04-15T12:24:42;6.28;;;3.65;;
27199;SDS011;14714;48.106;11.546;2023-04-15T12:27:37;7.90;;;3.88;;
27199;SDS011;14714;48.106;11.546;2023-04-15T12:30:04;8.13;;;3.90;;
27199;SDS011;14714;48.106;11.546;2023-04-15T12:32:33;8.13;;;4.20;;
27199;SDS011;14714;48.106;11.546;2023-04-15T12:35:01;5.45;;;4.05;;
27199;SDS011;14714;48.106;11.546;2023-04-15T12:37:27;6.50;;;3.70;;
27199;SDS011;14714;48.106;11.546;2023-04-15T12:39:54;7.80;;;4.35;;
27199;SDS011;14714;48.106;11.546;2023-04-15T12:42:21;6.38;;;3.97;;
27199;SDS011;14714;48.106;11.546;2023-04-15T12:44:48;6.47;;;4.00;;
27199;SDS011;14714;48.106;11.546;2023-04-15T12:47:15;7.60;;;3.70;;
27199;SDS011;14714;48.106;11.546;2023-04-15T12:49:42;8.30;;;4.18;;
27199;SDS011;14714;48.106;11.546;2023-04-15T12:52:09;7.03;;;3.80;;
27199;SDS011;14714;48.106;11.546;2023-04-15T12:54:36;6.05;;;3.60;;
27199;SDS011;14714;48.106;11.546;2023-04-15T12:57:04;6.50;;;3.70;;
27199;SDS011;14714;48.106;11.546;2023-04-15T12:59:33;4.80;;;3.38;;
27199;SDS011;14714;48.106;11.546;2023-04-15T13:02:00;7.47;;;3.67;;
27199;SDS011;14714;48.106;11.546;2023-04-15T13:04:28;7.40;;;3.08;;
27199;SDS011;14714;48.106;11.546;2023-04-15T13:06:56;5.18;;;2.78;;
27199;SDS011;14714;48.106;11.546;2023-04-15T13:09:23;4.93;;;2.90;;
27199;SDS011;14714;48.106;11.546;2023-04-15T13:11:50;4.22;;;2.67;;
27199;SDS011;14714;48.106;11.546;2023-04-15T13:14:18;3.90;;;2.70;;
27199;SDS011;14714;48.106;11.546;2023-04-15T13:16:45;4.35;;;2.58;;
27199;SDS011;14714;48.106;11.546;2023-04-15T13:19:12;4.70;;;2.58;;
27199;SDS011;14714;48.106;11.546;2023-04-15T13:21:39;5.78;;;2.88;;
27199;SDS011;14714;48.106;11.546;2023-04-15T13:24:06;7.00;;;2.45;;
27199;SDS011;14714;48.106;11.546;2023-04-15T13:26:34;6.22;;;2.70;;
27199;SDS011;14714;48.106;11.546;2023-04-15T13:29:01;5.57;;;2.75;;
27199;SDS011;14714;48.106;11.546;2023-04-15T13:31:28;6.97;;;2.90;;
27199;SDS011;14714;48.106;11.546;2023-04-15T13:33:55;6.05;;;2.60;;
27199;SDS011;14714;48.106;11.546;2023-04-15T13:36:23;4.32;;;2.80;;
27199;SDS011;14714;48.106;11.546;2023-04-15T13:38:50;5.15;;;2.63;;
27199;SDS011;14714;48.106;11.546;2023-04-15T13:41:17;4.68;;;2.90;;
27199;SDS011;14714;48.106;11.546;2023-04-15T13:43:45;5.53;;;3.20;;
27199;SDS011;14714;48.106;11.546;2023-04-15T13:46:12;8.52;;;3.17;;
27199;SDS011;14714;48.106;11.546;2023-04-15T13:48:40;7.00;;;3.47;;
27199;SDS011;14714;48.106;11.546;2023-04-15T13:51:07;4.30;;;3.13;;
27199;SDS011;14714;48.106;11.546;2023-04-15T13:53:34;4.35;;;3.17;;
27199;SDS011;14714;48.106;11.546;2023-04-15T13:56:05;9.00;;;3.20;;
27199;SDS011;14714;48.106;11.546;2023-04-15T13:58:33;7.53;;;3.58;;
27199;SDS011;14714;48.106;11.546;2023-04-15T14:01:00;7.40;;;3.70;;
27199;SDS011;14714;48.106;11.546;2023-04-15T14:03:30;5.05;;;3.67;;
27199;SDS011;14714;48.106;11.546;2023-04-15T14:06:01;7.57;;;3.90;;
27199;SDS011;14714;48.106;11.546;2023-04-15T14:08:28;5.10;;;3.30;;
27199;SDS011;14714;48.106;11.546;2023-04-15T14:10:56;7.88;;;3.70;;
27199;SDS011;14714;48.106;11.546;2023-04-15T14:13:23;6.25;;;3.45;;
27199;SDS011;14714;48.106;11.546;2023-04-15T14:15:50;4.90;;;3.10;;
27199;SDS011;14714;48.106;11.546;2023-04-15T14:18:17;9.80;;;4.10;;
27199;SDS011;14714;48.106;11.546;2023-04-15T14:20:44;8.10;;;4.00;;
27199;SDS011;14714;48.106;11.546;2023-04-15T14:23:11;7.20;;;3.80;;
27199;SDS011;14714;48.106;11.546;2023-04-15T14:25:38;4.10;;;3.13;;
27199;SDS011;14714;48.106;11.546;2023-04-15T14:28:05;3.83;;;3.05;;
27199;SDS011;14714;48.106;11.546;2023-04-15T14:30:33;6.07;;;3.38;;
27199;SDS011;14714;48.106;11.546;2023-04-15T14:32:59;8.98;;;4.13;;
27199;SDS011;14714;48.106;11.546;2023-04-15T14:35:27;7.57;;;3.78;;
27199;SDS011;14714;48.106;11.546;2023-04-15T14:37:54;5.20;;;2.88;;
27199;SDS011;14714;48.106;11.546;2023-04-15T14:40:21;5.82;;;3.60;;
27199;SDS011;14714;48.106;11.546;2023-04-15T14:42:48;4.60;;;2.97;;
27199;SDS011;14714;48.106;11.546;2023-04-15T14:45:15;5.43;;;3.78;;
27199;SDS011;14714;48.106;11.546;2023-04-15T14:47:43;12.90;;;4.93;;
27199;SDS011;14714;48.106;11.546;2023-04-15T14:50:10;8.02;;;3.20;;
27199;SDS011;14714;48.106;11.546;2023-04-15T14:52:37;10.00;;;3.53;;
27199;SDS011;14714;48.106;11.546;2023-04-15T14:55:05;5.63;;;2.80;;
27199;SDS011;14714;48.106;11.546;2023-04-15T14:57:33;3.65;;;2.75;;
27199;SDS011;14714;48.106;11.546;2023-04-15T15:00:00;6.80;;;3.40;;
27199;SDS011;14714;48.106;11.546;2023-04-15T15:02:28;6.57;;;3.00;;
27199;SDS011;14714;48.106;11.546;2023-04-15T15:04:59;4.43;;;3.00;;
27199;SDS011;14714;48.106;11.546;2023-04-15T15:07:27;6.90;;;3.53;;